CheckWX is a tool to help pilots better visualize weather data.  It is not intended as a substitute for an official pre-flight weather briefing.

03:03:24 UTC

KNOW METAR
Port Angeles CGas Airport
Port Angeles, Washington, USA
Current

33 mins ago

KNOW 170230Z AUTO 26018KT 10SM BKN095 OVC120 06/02 A3022 RMK AO2 T00570016
Observed
Feb-17 @ 02:30 UTC
Wind
  • 260° at 18 KTS
Visibility
10 SM
Flight Rules
VFR
Cloud Levels
  • Broken at 9,500' AGL
  • Overcast at 12,000' AGL
Temperature
C / 43°F
Dewpoint
C / 36°F
Humidity
76%
Altimeter
30.22" Hg
Pressure
1023.42 hPa
Previous

48 mins ago

KNOW 170215Z AUTO 25018KT 10SM BKN095 BKN120 06/01 A3022 RMK AO2 T00610013
Observed
Feb-17 @ 02:15 UTC
Wind
  • 250° at 18 KTS
Visibility
10 SM
Flight Rules
VFR
Cloud Levels
  • Broken at 9,500' AGL
  • Broken at 12,000' AGL
Temperature
C / 43°F
Dewpoint
C / 34°F
Humidity
71%
Altimeter
30.22" Hg
Pressure
1023.42 hPa
Previous

1 hour ago

KNOW 170150Z AUTO 25017KT 10SM CLR 06/01 A3021 RMK AO2 T00620011
Observed
Feb-17 @ 01:50 UTC
Wind
  • 250° at 17 KTS
Visibility
10 SM
Flight Rules
VFR
Cloud Levels
  • Clear skies
Temperature
C / 43°F
Dewpoint
C / 34°F
Humidity
71%
Altimeter
30.21" Hg
Pressure
1023.02 hPa